sensor_id;sensor_type;location;lat;lon;timestamp;pressure;altitude;pressure_sealevel;temperature;humidity
65754;BME280;69207;47.502;18.940;2023-09-18T00:00:47;98390.84;;;19.76;93.00
65754;BME280;69207;47.502;18.940;2023-09-18T00:01:53;98396.19;;;19.70;93.51
65754;BME280;69207;47.502;18.940;2023-09-18T00:02:55;98395.88;;;19.80;92.85
65754;BME280;69207;47.502;18.940;2023-09-18T00:03:59;98399.84;;;19.74;92.95
65754;BME280;69207;47.502;18.940;2023-09-18T00:05:02;98394.75;;;19.69;93.47
65754;BME280;69207;47.502;18.940;2023-09-18T00:06:05;98395.41;;;19.67;93.67
65754;BME280;69207;47.502;18.940;2023-09-18T00:07:08;98400.50;;;19.73;93.22
65754;BME280;69207;47.502;18.940;2023-09-18T00:08:14;98388.16;;;19.78;92.64
65754;BME280;69207;47.502;18.940;2023-09-18T00:09:17;98396.91;;;19.70;93.14
65754;BME280;69207;47.502;18.940;2023-09-18T00:10:20;98387.28;;;19.73;92.96
65754;BME280;69207;47.502;18.940;2023-09-18T00:11:24;98389.91;;;19.69;93.15
65754;BME280;69207;47.502;18.940;2023-09-18T00:12:27;98379.78;;;19.78;92.91
65754;BME280;69207;47.502;18.940;2023-09-18T00:13:29;98390.59;;;19.88;91.97
65754;BME280;69207;47.502;18.940;2023-09-18T00:14:32;98376.19;;;19.75;92.57
65754;BME280;69207;47.502;18.940;2023-09-18T00:15:35;98377.97;;;19.67;93.35
65754;BME280;69207;47.502;18.940;2023-09-18T00:16:39;98386.19;;;19.63;93.73
65754;BME280;69207;47.502;18.940;2023-09-18T00:17:59;98381.88;;;19.60;94.00
65754;BME280;69207;47.502;18.940;2023-09-18T00:19:02;98391.44;;;19.72;93.12
65754;BME280;69207;47.502;18.940;2023-09-18T00:20:06;98378.97;;;19.75;92.66
65754;BME280;69207;47.502;18.940;2023-09-18T00:21:10;98382.25;;;19.70;93.12
65754;BME280;69207;47.502;18.940;2023-09-18T00:22:13;98389.75;;;19.65;93.26
65754;BME280;69207;47.502;18.940;2023-09-18T00:23:16;98377.63;;;19.76;92.61
65754;BME280;69207;47.502;18.940;2023-09-18T00:24:19;98380.19;;;19.70;92.82
65754;BME280;69207;47.502;18.940;2023-09-18T00:25:22;98375.22;;;19.87;92.09
65754;BME280;69207;47.502;18.940;2023-09-18T00:26:25;98377.28;;;19.86;91.73
65754;BME280;69207;47.502;18.940;2023-09-18T00:27:29;98384.66;;;19.77;92.33
65754;BME280;69207;47.502;18.940;2023-09-18T00:28:32;98382.56;;;19.78;92.33
65754;BME280;69207;47.502;18.940;2023-09-18T00:29:35;98383.84;;;19.75;92.47
65754;BME280;69207;47.502;18.940;2023-09-18T00:30:42;98384.91;;;19.66;93.00
65754;BME280;69207;47.502;18.940;2023-09-18T00:31:46;98387.44;;;19.60;93.63
65754;BME280;69207;47.502;18.940;2023-09-18T00:32:49;98390.63;;;19.52;94.07
65754;BME280;69207;47.502;18.940;2023-09-18T00:33:53;98382.97;;;19.52;94.14
65754;BME280;69207;47.502;18.940;2023-09-18T00:34:56;98380.44;;;19.59;93.76
65754;BME280;69207;47.502;18.940;2023-09-18T00:35:59;98387.59;;;19.64;93.37
65754;BME280;69207;47.502;18.940;2023-09-18T00:37:02;98381.38;;;19.65;93.12
65754;BME280;69207;47.502;18.940;2023-09-18T00:38:05;98383.41;;;19.63;93.05
65754;BME280;69207;47.502;18.940;2023-09-18T00:39:10;98385.84;;;19.55;93.81
65754;BME280;69207;47.502;18.940;2023-09-18T00:40:13;98382.09;;;19.48;94.45
65754;BME280;69207;47.502;18.940;2023-09-18T00:41:16;98383.31;;;19.43;94.69
65754;BME280;69207;47.502;18.940;2023-09-18T00:42:19;98374.81;;;19.39;94.94
65754;BME280;69207;47.502;18.940;2023-09-18T00:43:22;98374.66;;;19.35;95.37
65754;BME280;69207;47.502;18.940;2023-09-18T00:44:24;98372.81;;;19.41;95.05
65754;BME280;69207;47.502;18.940;2023-09-18T00:45:29;98376.31;;;19.42;94.78
65754;BME280;69207;47.502;18.940;2023-09-18T00:46:33;98373.22;;;19.34;95.22
65754;BME280;69207;47.502;18.940;2023-09-18T00:47:36;98374.56;;;19.33;95.42
65754;BME280;69207;47.502;18.940;2023-09-18T00:48:40;98378.78;;;19.34;95.25
65754;BME280;69207;47.502;18.940;2023-09-18T00:49:46;98376.50;;;19.28;95.89
65754;BME280;69207;47.502;18.940;2023-09-18T00:50:50;98383.31;;;19.25;96.21
65754;BME280;69207;47.502;18.940;2023-09-18T00:51:53;98381.47;;;19.32;95.69
65754;BME280;69207;47.502;18.940;2023-09-18T00:52:57;98378.22;;;19.37;95.38
65754;BME280;69207;47.502;18.940;2023-09-18T00:54:00;98383.56;;;19.31;95.60
65754;BME280;69207;47.502;18.940;2023-09-18T00:55:05;98387.53;;;19.26;96.05
65754;BME280;69207;47.502;18.940;2023-09-18T00:56:10;98382.59;;;19.24;96.24
65754;BME280;69207;47.502;18.940;2023-09-18T00:57:13;98381.91;;;19.24;96.27
65754;BME280;69207;47.502;18.940;2023-09-18T00:58:16;98385.56;;;19.29;95.95
65754;BME280;69207;47.502;18.940;2023-09-18T00:59:20;98381.91;;;19.24;96.13
65754;BME280;69207;47.502;18.940;2023-09-18T01:00:23;98381.47;;;19.32;95.62
65754;BME280;69207;47.502;18.940;2023-09-18T01:01:26;98381.47;;;19.32;95.70
65754;BME280;69207;47.502;18.940;2023-09-18T01:02:29;98378.69;;;19.32;95.56
65754;BME280;69207;47.502;18.940;2023-09-18T01:03:33;98381.25;;;19.25;95.93
65754;BME280;69207;47.502;18.940;2023-09-18T01:04:37;98375.59;;;19.23;96.17
65754;BME280;69207;47.502;18.940;2023-09-18T01:05:40;98374.78;;;19.21;96.42
65754;BME280;69207;47.502;18.940;2023-09-18T01:06:43;98369.16;;;19.19;96.63
65754;BME280;69207;47.502;18.940;2023-09-18T01:07:46;98378.69;;;19.14;96.97
65754;BME280;69207;47.502;18.940;2023-09-18T01:08:49;98371.88;;;19.17;96.79
65754;BME280;69207;47.502;18.940;2023-09-18T01:09:56;98373.94;;;19.16;96.83
65754;BME280;69207;47.502;18.940;2023-09-18T01:11:14;98376.87;;;19.20;96.40
65754;BME280;69207;47.502;18.940;2023-09-18T01:12:35;98376.56;;;19.12;96.90
65754;BME280;69207;47.502;18.940;2023-09-18T01:13:51;98371.53;;;19.09;97.35
65754;BME280;69207;47.502;18.940;2023-09-18T01:15:02;98368.03;;;19.08;97.59
65754;BME280;69207;47.502;18.940;2023-09-18T01:16:17;98373.53;;;19.06;97.46
65754;BME280;69207;47.502;18.940;2023-09-18T01:17:26;98370.19;;;19.10;97.52
65754;BME280;69207;47.502;18.940;2023-09-18T01:18:29;98366.78;;;19.29;95.89
65754;BME280;69207;47.502;18.940;2023-09-18T01:20:47;98363.28;;;19.11;97.17
65754;BME280;69207;47.502;18.940;2023-09-18T01:21:50;98367.41;;;19.10;97.28
65754;BME280;69207;47.502;18.940;2023-09-18T01:22:53;98358.03;;;19.01;97.86
65754;BME280;69207;47.502;18.940;2023-09-18T01:23:56;98357.13;;;19.14;97.27
65754;BME280;69207;47.502;18.940;2023-09-18T01:24:59;98359.16;;;19.12;97.13
65754;BME280;69207;47.502;18.940;2023-09-18T01:26:02;98364.00;;;19.11;97.27
65754;BME280;69207;47.502;18.940;2023-09-18T01:27:08;98358.44;;;19.11;97.25
65754;BME280;69207;47.502;18.940;2023-09-18T01:28:12;98357.00;;;19.10;97.58
65754;BME280;69207;47.502;18.940;2023-09-18T01:29:15;98357.47;;;19.22;96.93
65754;BME280;69207;47.502;18.940;2023-09-18T01:30:20;98357.53;;;19.24;96.38
65754;BME280;69207;47.502;18.940;2023-09-18T01:31:23;98355.88;;;19.17;96.71
65754;BME280;69207;47.502;18.940;2023-09-18T01:32:29;98357.00;;;19.10;97.26
65754;BME280;69207;47.502;18.940;2023-09-18T01:33:33;98363.84;;;19.07;97.58
65754;BME280;69207;47.502;18.940;2023-09-18T01:34:41;98357.38;;;19.03;98.20
65754;BME280;69207;47.502;18.940;2023-09-18T01:35:45;98365.72;;;19.03;98.11
65754;BME280;69207;47.502;18.940;2023-09-18T01:36:49;98364.31;;;19.02;98.12
65754;BME280;69207;47.502;18.940;2023-09-18T01:37:53;98355.16;;;18.99;98.30
65754;BME280;69207;47.502;18.940;2023-09-18T01:38:57;98364.72;;;18.94;98.68
65754;BME280;69207;47.502;18.940;2023-09-18T01:40:01;98361.81;;;18.92;98.80
65754;BME280;69207;47.502;18.940;2023-09-18T01:41:09;98367.56;;;18.96;98.65
65754;BME280;69207;47.502;18.940;2023-09-18T01:42:12;98360.63;;;18.97;98.49
65754;BME280;69207;47.502;18.940;2023-09-18T01:43:15;98366.84;;;18.95;98.63
65754;BME280;69207;47.502;18.940;2023-09-18T01:44:18;98360.63;;;18.97;98.54
65754;BME280;69207;47.502;18.940;2023-09-18T01:45:21;98358.50;;;18.95;98.68
65754;BME280;69207;47.502;18.940;2023-09-18T01:46:24;98360.47;;;18.93;98.87
65754;BME280;69207;47.502;18.940;2023-09-18T01:47:27;98362.06;;;18.98;98.71
65754;BME280;69207;47.502;18.940;2023-09-18T01:48:30;98357.69;;;18.93;98.85
65754;BME280;69207;47.502;18.940;2023-09-18T01:49:38;98355.37;;;18.87;99.30
65754;BME280;69207;47.502;18.940;2023-09-18T01:50:42;98353.06;;;18.82;99.71
65754;BME280;69207;47.502;18.940;2023-09-18T01:51:45;98359.44;;;18.84;99.59
65754;BME280;69207;47.502;18.940;2023-09-18T01:52:48;98351.25;;;18.88;99.34
65754;BME280;69207;47.502;18.940;2023-09-18T01:53:52;98355.22;;;18.83;99.56
65754;BME280;69207;47.502;18.940;2023-09-18T01:54:55;98354.44;;;18.81;99.76
65754;BME280;69207;47.502;18.940;2023-09-18T01:55:58;98361.28;;;18.78;99.97
65754;BME280;69207;47.502;18.940;2023-09-18T01:57:02;98352.75;;;18.73;100.00
65754;BME280;69207;47.502;18.940;2023-09-18T01:58:06;98352.81;;;18.76;100.00
65754;BME280;69207;47.502;18.940;2023-09-18T01:59:09;98358.31;;;18.73;100.00
65754;BME280;69207;47.502;18.940;2023-09-18T02:00:13;98345.91;;;18.77;100.00
65754;BME280;69207;47.502;18.940;2023-09-18T02:01:18;98346.78;;;18.81;99.87
65754;BME280;69207;47.502;18.940;2023-09-18T02:02:21;98346.47;;;18.73;100.00
65754;BME280;69207;47.502;18.940;2023-09-18T02:03:33;98353.41;;;18.72;100.00
65754;BME280;69207;47.502;18.940;2023-09-18T02:04:56;98354.66;;;18.69;100.00
65754;BME280;69207;47.502;18.940;2023-09-18T02:06:11;98353.84;;;18.66;100.00
65754;BME280;69207;47.502;18.940;2023-09-18T02:07:14;98358.06;;;18.67;100.00
65754;BME280;69207;47.502;18.940;2023-09-18T02:08:18;98350.25;;;18.64;100.00
65754;BME280;69207;47.502;18.940;2023-09-18T02:09:21;98353.41;;;18.56;100.00
65754;BME280;69207;47.502;18.940;2023-09-18T02:10:24;98340.69;;;18.51;100.00
65754;BME280;69207;47.502;18.940;2023-09-18T02:11:27;98346.50;;;18.57;100.00
65754;BME280;69207;47.502;18.940;2023-09-18T02:12:31;98343.72;;;18.57;100.00
65754;BME280;69207;47.502;18.940;2023-09-18T02:13:34;98353.25;;;18.52;100.00
65754;BME280;69207;47.502;18.940;2023-09-18T02:14:37;98348.50;;;18.55;100.00
65754;BME280;69207;47.502;18.940;2023-09-18T02:15:41;98353.03;;;18.64;100.00
65754;BME280;69207;47.502;18.940;2023-09-18T02:16:43;98346.03;;;18.63;100.00
65754;BME280;69207;47.502;18.940;2023-09-18T02:17:47;98341.66;;;18.58;100.00
65754;BME280;69207;47.502;18.940;2023-09-18T02:18:50;98346.41;;;18.55;100.00
65754;BME280;69207;47.502;18.940;2023-09-18T02:19:53;98340.75;;;18.53;100.00
65754;BME280;69207;47.502;18.940;2023-09-18T02:20:57;98348.56;;;18.57;100.00
65754;BME280;69207;47.502;18.940;2023-09-18T02:22:00;98340.16;;;18.55;100.00
65754;BME280;69207;47.502;18.940;2023-09-18T02:23:03;98340.94;;;18.57;100.00
65754;BME280;69207;47.502;18.940;2023-09-18T02:24:07;98344.97;;;18.54;100.00
65754;BME280;69207;47.502;18.940;2023-09-18T02:25:10;98340.69;;;18.51;100.00
65754;BME280;69207;47.502;18.940;2023-09-18T02:26:12;98347.84;;;18.56;100.00
65754;BME280;69207;47.502;18.940;2023-09-18T02:27:15;98352.44;;;18.50;100.00
65754;BME280;69207;47.502;18.940;2023-09-18T02:28:21;98343.22;;;18.45;100.00
65754;BME280;69207;47.502;18.940;2023-09-18T02:29:24;98343.75;;;18.41;100.00
65754;BME280;69207;47.502;18.940;2023-09-18T02:30:27;98353.44;;;18.40;100.00
65754;BME280;69207;47.502;18.940;2023-09-18T02:31:31;98352.03;;;18.39;100.00
65754;BME280;69207;47.502;18.940;2023-09-18T02:32:34;98350.41;;;18.34;100.00
65754;BME280;69207;47.502;18.940;2023-09-18T02:33:37;98348.34;;;18.35;100.00
65754;BME280;69207;47.502;18.940;2023-09-18T02:34:41;98343.12;;;18.43;100.00
65754;BME280;69207;47.502;18.940;2023-09-18T02:35:43;98351.56;;;18.45;100.00
65754;BME280;69207;47.502;18.940;2023-09-18T02:36:46;98345.09;;;18.40;100.00
65754;BME280;69207;47.502;18.940;2023-09-18T02:37:50;98341.25;;;18.32;100.00
65754;BME280;69207;47.502;18.940;2023-09-18T02:38:53;98343.78;;;18.26;100.00
65754;BME280;69207;47.502;18.940;2023-09-18T02:39:56;98334.84;;;18.27;100.00
65754;BME280;69207;47.502;18.940;2023-09-18T02:41:00;98340.22;;;18.23;100.00
65754;BME280;69207;47.502;18.940;2023-09-18T02:42:03;98336.97;;;18.29;100.00
65754;BME280;69207;47.502;18.940;2023-09-18T02:43:06;98341.00;;;18.26;100.00
65754;BME280;69207;47.502;18.940;2023-09-18T02:44:09;98345.25;;;18.27;100.00
65754;BME280;69207;47.502;18.940;2023-09-18T02:45:13;98341.81;;;18.28;100.00
65754;BME280;69207;47.502;18.940;2023-09-18T02:46:15;98344.12;;;18.34;100.00
65754;BME280;69207;47.502;18.940;2023-09-18T02:47:19;98351.00;;;18.48;100.00
65754;BME280;69207;47.502;18.940;2023-09-18T02:48:22;98350.38;;;18.50;100.00
65754;BME280;69207;47.502;18.940;2023-09-18T02:49:25;98355.78;;;18.46;100.00
65754;BME280;69207;47.502;18.940;2023-09-18T02:50:28;98348.84;;;18.47;100.00
65754;BME280;69207;47.502;18.940;2023-09-18T02:51:31;98346.87;;;18.50;100.00
65754;BME280;69207;47.502;18.940;2023-09-18T02:52:34;98352.91;;;18.44;100.00
65754;BME280;69207;47.502;18.940;2023-09-18T02:53:37;98353.28;;;18.36;100.00
65754;BME280;69207;47.502;18.940;2023-09-18T02:54:40;98344.84;;;18.34;100.00
65754;BME280;69207;47.502;18.940;2023-09-18T02:55:43;98354.69;;;18.37;100.00
65754;BME280;69207;47.502;18.940;2023-09-18T02:56:46;98351.12;;;18.35;100.00
65754;BME280;69207;47.502;18.940;2023-09-18T02:57:48;98348.81;;;18.29;100.00
65754;BME280;69207;47.502;18.940;2023-09-18T02:58:51;98344.41;;;18.24;100.00
65754;BME280;69207;47.502;18.940;2023-09-18T02:59:55;98336.72;;;18.23;100.00
65754;BME280;69207;47.502;18.940;2023-09-18T03:00:57;98353.41;;;18.23;100.00
65754;BME280;69207;47.502;18.940;2023-09-18T03:02:06;98343.53;;;18.19;100.00
65754;BME280;69207;47.502;18.940;2023-09-18T03:03:10;98346.06;;;18.13;100.00
65754;BME280;69207;47.502;18.940;2023-09-18T03:04:14;98351.28;;;18.05;100.00
65754;BME280;69207;47.502;18.940;2023-09-18T03:05:17;98345.53;;;18.01;100.00
65754;BME280;69207;47.502;18.940;2023-09-18T03:06:20;98346.97;;;18.02;100.00
65754;BME280;69207;47.502;18.940;2023-09-18T03:07:23;98356.13;;;18.05;100.00
65754;BME280;69207;47.502;18.940;2023-09-18T03:08:25;98337.91;;;18.02;100.00
65754;BME280;69207;47.502;18.940;2023-09-18T03:09:29;98342.69;;;17.99;100.00
65754;BME280;69207;47.502;18.940;2023-09-18T03:10:33;98349.28;;;17.92;100.00
65754;BME280;69207;47.502;18.940;2023-09-18T03:11:37;98349.22;;;17.90;100.00
65754;BME280;69207;47.502;18.940;2023-09-18T03:12:40;98346.37;;;17.88;100.00
65754;BME280;69207;47.502;18.940;2023-09-18T03:13:46;98351.75;;;17.84;100.00
65754;BME280;69207;47.502;18.940;2023-09-18T03:14:50;98348.13;;;17.81;100.00
65754;BME280;69207;47.502;18.940;2023-09-18T03:15:54;98341.16;;;17.80;100.00
65754;BME280;69207;47.502;18.940;2023-09-18T03:16:57;98343.12;;;17.78;100.00
65754;BME280;69207;47.502;18.940;2023-09-18T03:18:01;98334.69;;;17.76;100.00
65754;BME280;69207;47.502;18.940;2023-09-18T03:19:05;98348.59;;;17.76;100.00
65754;BME280;69207;47.502;18.940;2023-09-18T03:20:09;98335.31;;;17.74;100.00
65754;BME280;69207;47.502;18.940;2023-09-18T03:21:11;98338.28;;;17.78;100.00
65754;BME280;69207;47.502;18.940;2023-09-18T03:22:15;98338.81;;;17.75;100.00
65754;BME280;69207;47.502;18.940;2023-09-18T03:23:18;98333.91;;;17.73;100.00
65754;BME280;69207;47.502;18.940;2023-09-18T03:24:21;98334.31;;;17.67;100.00
65754;BME280;69207;47.502;18.940;2023-09-18T03:25:25;98338.09;;;17.74;100.00
65754;BME280;69207;47.502;18.940;2023-09-18T03:26:29;98337.19;;;17.69;100.00
65754;BME280;69207;47.502;18.940;2023-09-18T03:27:32;98327.31;;;17.66;100.00
65754;BME280;69207;47.502;18.940;2023-09-18T03:28:35;98332.87;;;17.66;100.00
65754;BME280;69207;47.502;18.940;2023-09-18T03:29:38;98329.09;;;17.60;100.00
65754;BME280;69207;47.502;18.940;2023-09-18T03:30:41;98334.13;;;17.63;100.00
65754;BME280;69207;47.502;18.940;2023-09-18T03:31:44;98325.59;;;17.59;100.00
65754;BME280;69207;47.502;18.940;2023-09-18T03:32:47;98332.06;;;17.48;100.00
65754;BME280;69207;47.502;18.940;2023-09-18T03:33:54;98330.72;;;17.49;100.00
65754;BME280;69207;47.502;18.940;2023-09-18T03:34:57;98327.13;;;17.47;100.00
65754;BME280;69207;47.502;18.940;2023-09-18T03:36:00;98325.31;;;17.37;100.00
65754;BME280;69207;47.502;18.940;2023-09-18T03:37:03;98326.84;;;17.40;100.00
65754;BME280;69207;47.502;18.940;2023-09-18T03:38:06;98332.13;;;17.34;100.00
65754;BME280;69207;47.502;18.940;2023-09-18T03:39:09;98322.97;;;17.32;100.00
65754;BME280;69207;47.502;18.940;2023-09-18T03:40:13;98322.25;;;17.31;100.00
65754;BME280;69207;47.502;18.940;2023-09-18T03:41:16;98323.34;;;17.24;100.00
65754;BME280;69207;47.502;18.940;2023-09-18T03:42:18;98332.09;;;17.19;100.00
65754;BME280;69207;47.502;18.940;2023-09-18T03:43:21;98327.25;;;17.19;100.00
65754;BME280;69207;47.502;18.940;2023-09-18T03:44:25;98327.91;;;17.18;100.00
65754;BME280;69207;47.502;18.940;2023-09-18T03:45:28;98332.09;;;17.19;100.00
65754;BME280;69207;47.502;18.940;2023-09-18T03:46:31;98320.19;;;17.16;100.00
65754;BME280;69207;47.502;18.940;2023-09-18T03:47:34;98331.19;;;17.14;100.00
65754;BME280;69207;47.502;18.940;2023-09-18T03:48:38;98327.19;;;17.17;100.00
65754;BME280;69207;47.502;18.940;2023-09-18T03:49:41;98322.78;;;17.12;100.00
65754;BME280;69207;47.502;18.940;2023-09-18T03:50:44;98327.34;;;17.05;100.00
65754;BME280;69207;47.502;18.940;2023-09-18T03:51:47;98327.94;;;17.04;100.00
65754;BME280;69207;47.502;18.940;2023-09-18T03:52:50;98323.66;;;17.01;100.00
65754;BME280;69207;47.502;18.940;2023-09-18T03:53:53;98327.06;;;16.99;100.00
65754;BME280;69207;47.502;18.940;2023-09-18T03:54:56;98331.69;;;16.95;100.00
65754;BME280;69207;47.502;18.940;2023-09-18T03:55:59;98334.34;;;16.93;100.00
65754;BME280;69207;47.502;18.940;2023-09-18T03:57:03;98326.75;;;16.93;100.00
65754;BME280;69207;47.502;18.940;2023-09-18T03:58:05;98330.78;;;16.90;100.00
65754;BME280;69207;47.502;18.940;2023-09-18T03:59:09;98322.25;;;16.86;100.00
65754;BME280;69207;47.502;18.940;2023-09-18T04:00:12;98326.28;;;16.83;100.00
65754;BME280;69207;47.502;18.940;2023-09-18T04:01:15;98322.78;;;16.82;100.00
65754;BME280;69207;47.502;18.940;2023-09-18T04:02:19;98318.56;;;16.81;100.00
65754;BME280;69207;47.502;18.940;2023-09-18T04:03:21;98322.47;;;16.76;100.00
65754;BME280;69207;47.502;18.940;2023-09-18T04:04:25;98323.09;;;16.75;100.00
65754;BME280;69207;47.502;18.940;2023-09-18T04:05:27;98319.00;;;16.76;100.00
65754;BME280;69207;47.502;18.940;2023-09-18T04:06:42;98314.59;;;16.71;100.00
65754;BME280;69207;47.502;18.940;2023-09-18T04:07:45;98310.25;;;16.68;100.00
65754;BME280;69207;47.502;18.940;2023-09-18T04:08:49;98315.69;;;16.66;100.00
65754;BME280;69207;47.502;18.940;2023-09-18T04:09:52;98322.91;;;16.57;100.00
65754;BME280;69207;47.502;18.940;2023-09-18T04:10:55;98320.78;;;16.55;100.00
65754;BME280;69207;47.502;18.940;2023-09-18T04:12:04;98322.50;;;16.49;100.00
65754;BME280;69207;47.502;18.940;2023-09-18T04:13:10;98320.38;;;16.47;100.00
65754;BME280;69207;47.502;18.940;2023-09-18T04:14:13;98314.94;;;16.49;100.00
65754;BME280;69207;47.502;18.940;2023-09-18T04:15:17;98308.56;;;16.47;100.00
65754;BME280;69207;47.502;18.940;2023-09-18T04:16:20;98312.59;;;16.44;100.00
65754;BME280;69207;47.502;18.940;2023-09-18T04:17:23;98313.47;;;16.48;100.00
65754;BME280;69207;47.502;18.940;2023-09-18T04:18:27;98316.56;;;16.41;100.00
65754;BME280;69207;47.502;18.940;2023-09-18T04:19:30;98304.69;;;16.38;100.00
65754;BME280;69207;47.502;18.940;2023-09-18T04:20:33;98307.25;;;16.34;100.00
65754;BME280;69207;47.502;18.940;2023-09-18T04:21:38;98307.03;;;16.30;100.00
65754;BME280;69207;47.502;18.940;2023-09-18T04:22:46;98304.47;;;16.34;100.00
65754;BME280;69207;47.502;18.940;2023-09-18T04:23:53;98298.81;;;16.32;100.00
65754;BME280;69207;47.502;18.940;2023-09-18T04:25:00;98305.09;;;16.32;100.00
65754;BME280;69207;47.502;18.940;2023-09-18T04:26:03;98304.34;;;16.32;100.00
65754;BME280;69207;47.502;18.940;2023-09-18T04:27:06;98297.00;;;16.23;100.00
65754;BME280;69207;47.502;18.940;2023-09-18T04:28:09;98297.72;;;16.23;100.00
65754;BME280;69207;47.502;18.940;2023-09-18T04:29:12;98305.09;;;16.19;100.00
65754;BME280;69207;47.502;18.940;2023-09-18T04:30:15;98301.41;;;16.14;100.00
65754;BME280;69207;47.502;18.940;2023-09-18T04:31:20;98297.81;;;16.12;100.00
65754;BME280;69207;47.502;18.940;2023-09-18T04:32:23;98298.00;;;16.16;100.00
65754;BME280;69207;47.502;18.940;2023-09-18T04:33:26;98295.16;;;16.14;100.00
65754;BME280;69207;47.502;18.940;2023-09-18T04:34:32;98291.25;;;16.19;100.00
65754;BME280;69207;47.502;18.940;2023-09-18T04:35:35;98294.44;;;16.13;100.00
65754;BME280;69207;47.502;18.940;2023-09-18T04:36:39;98293.72;;;16.13;100.00
65754;BME280;69207;47.502;18.940;2023-09-18T04:37:42;98304.59;;;16.08;100.00
65754;BME280;69207;47.502;18.940;2023-09-18T04:38:45;98305.31;;;16.09;100.00
65754;BME280;69207;47.502;18.940;2023-09-18T04:39:48;98314.03;;;16.03;100.00
65754;BME280;69207;47.502;18.940;2023-09-18T04:40:58;98309.19;;;16.04;100.00
65754;BME280;69207;47.502;18.940;2023-09-18T04:42:01;98302.75;;;15.99;100.00
65754;BME280;69207;47.502;18.940;2023-09-18T04:43:06;98302.75;;;15.99;100.00
65754;BME280;69207;47.502;18.940;2023-09-18T04:44:09;98301.22;;;15.96;100.00
65754;BME280;69207;47.502;18.940;2023-09-18T04:45:15;98306.12;;;15.98;100.00
65754;BME280;69207;47.502;18.940;2023-09-18T04:46:18;98309.44;;;15.94;100.00
65754;BME280;69207;47.502;18.940;2023-09-18T04:47:22;98305.94;;;15.94;100.00
65754;BME280;69207;47.502;18.940;2023-09-18T04:48:24;98302.84;;;15.88;100.00
65754;BME280;69207;47.502;18.940;2023-09-18T04:49:27;98304.78;;;15.85;100.00
65754;BME280;69207;47.502;18.940;2023-09-18T04:50:31;98300.81;;;15.88;100.00
65754;BME280;69207;47.502;18.940;2023-09-18T04:51:34;98308.37;;;15.88;100.00
65754;BME280;69207;47.502;18.940;2023-09-18T04:52:37;98302.97;;;15.90;100.00
65754;BME280;69207;47.502;18.940;2023-09-18T04:53:40;98298.03;;;15.88;100.00
65754;BME280;69207;47.502;18.940;2023-09-18T04:54:43;98303.56;;;15.88;100.00
65754;BME280;69207;47.502;18.940;2023-09-18T04:55:46;98294.66;;;15.90;100.00
65754;BME280;69207;47.502;18.940;2023-09-18T04:56:52;98298.84;;;15.91;100.00
65754;BME280;69207;47.502;18.940;2023-09-18T04:57:55;98291.75;;;15.88;100.00
65754;BME280;69207;47.502;18.940;2023-09-18T04:59:00;98293.00;;;15.84;100.00
65754;BME280;69207;47.502;18.940;2023-09-18T05:00:04;98297.41;;;15.90;100.00
65754;BME280;69207;47.502;18.940;2023-09-18T05:01:18;98291.34;;;15.93;100.00
65754;BME280;69207;47.502;18.940;2023-09-18T05:02:22;98291.34;;;15.93;100.00
65754;BME280;69207;47.502;18.940;2023-09-18T05:03:25;98292.19;;;15.96;100.00
65754;BME280;69207;47.502;18.940;2023-09-18T05:04:29;98297.81;;;15.98;100.00
65754;BME280;69207;47.502;18.940;2023-09-18T05:05:32;98294.94;;;15.96;100.00
65754;BME280;69207;47.502;18.940;2023-09-18T05:06:35;98299.16;;;15.97;100.00
65754;BME280;69207;47.502;18.940;2023-09-18T05:07:39;98293.09;;;16.00;100.00
65754;BME280;69207;47.502;18.940;2023-09-18T05:08:43;98295.34;;;16.04;100.00
65754;BME280;69207;47.502;18.940;2023-09-18T05:09:46;98293.41;;;16.06;100.00
65754;BME280;69207;47.502;18.940;2023-09-18T05:10:49;98294.44;;;16.13;100.00
65754;BME280;69207;47.502;18.940;2023-09-18T05:11:52;98292.66;;;16.20;100.00
65754;BME280;69207;47.502;18.940;2023-09-18T05:12:55;98295.44;;;16.20;100.00
65754;BME280;69207;47.502;18.940;2023-09-18T05:14:01;98291.88;;;16.17;100.00
65754;BME280;69207;47.502;18.940;2023-09-18T05:15:05;98297.50;;;16.19;100.00
65754;BME280;69207;47.502;18.940;2023-09-18T05:16:08;98294.84;;;16.21;100.00
65754;BME280;69207;47.502;18.940;2023-09-18T05:17:15;98292.97;;;16.26;100.00
65754;BME280;69207;47.502;18.940;2023-09-18T05:18:18;98303.47;;;16.27;100.00
65754;BME280;69207;47.502;18.940;2023-09-18T05:19:21;98303.03;;;16.33;100.00
65754;BME280;69207;47.502;18.940;2023-09-18T05:20:25;98304.78;;;16.40;100.00
65754;BME280;69207;47.502;18.940;2023-09-18T05:21:29;98307.13;;;16.46;100.00
65754;BME280;69207;47.502;18.940;2023-09-18T05:22:32;98304.25;;;16.44;100.00
65754;BME280;69207;47.502;18.940;2023-09-18T05:23:36;98302.72;;;16.41;100.00
65754;BME280;69207;47.502;18.940;2023-09-18T05:24:39;98300.44;;;16.37;100.00
65754;BME280;69207;47.502;18.940;2023-09-18T05:25:43;98304.56;;;16.36;100.00
65754;BME280;69207;47.502;18.940;2023-09-18T05:26:46;98315.03;;;16.37;100.00
65754;BME280;69207;47.502;18.940;2023-09-18T05:27:49;98308.78;;;16.37;100.00
65754;BME280;69207;47.502;18.940;2023-09-18T05:28:58;98306.81;;;16.40;100.00
65754;BME280;69207;47.502;18.940;2023-09-18T05:30:01;98313.72;;;16.39;100.00
65754;BME280;69207;47.502;18.940;2023-09-18T05:31:04;98306.81;;;16.40;100.00
65754;BME280;69207;47.502;18.940;2023-09-18T05:32:07;98311.03;;;16.41;100.00
65754;BME280;69207;47.502;18.940;2023-09-18T05:33:10;98313.09;;;16.40;100.00